Time;durP1;ratioP1;P1;durP2;ratioP2;P2;SDS_P1;SDS_P2;PMS_P1;PMS_P2;Temp;Humidity;BMP_temperature;BMP_pressure;BME280_temperature;BME280_humidity;BME280_pressure;Samples;Min_cycle;Max_cycle;Signal;HPM_P1;HPM_P2
2023/06/18 00:01:26;;;;;;;86.05;82.32;;;18.70;99.90;;;;;;5050864;28;20208;-63
2023/06/18 00:03:53;;;;;;;189.55;180.50;;;18.70;99.90;;;;;;5051720;28;20576;-60
2023/06/18 00:06:20;;;;;;;76.10;72.97;;;18.80;99.90;;;;;;5057077;28;20203;-58
2023/06/18 00:08:48;;;;;;;166.50;158.13;;;19.30;99.90;;;;;;5058052;28;20224;-57
2023/06/18 00:11:15;;;;;;;180.80;172.35;;;19.70;99.90;;;;;;5058252;28;20192;-58
2023/06/18 00:13:42;;;;;;;128.70;122.90;;;20.00;99.90;;;;;;5060411;28;20200;-58
2023/06/18 00:16:09;;;;;;;87.32;83.93;;;20.10;99.90;;;;;;5059596;28;20195;-58
2023/06/18 00:18:36;;;;;;;159.38;152.07;;;20.20;99.90;;;;;;5060756;28;20191;-57
2023/06/18 00:21:07;;;;;;;121.65;115.85;;;20.20;99.90;;;;;;5059549;28;20304;-60
2023/06/18 00:23:34;;;;;;;144.02;137.10;;;20.30;99.90;;;;;;5059361;28;20657;-57
2023/06/18 00:26:02;;;;;;;104.30;99.63;;;20.40;99.90;;;;;;5062353;28;20269;-59
2023/06/18 00:28:29;;;;;;;262.67;249.60;;;20.40;99.90;;;;;;5061436;28;20207;-59
2023/06/18 00:30:56;;;;;;;80.75;77.55;;;20.30;99.90;;;;;;5061797;28;20200;-57
2023/06/18 00:33:24;;;;;;;113.93;109.20;;;20.40;99.90;;;;;;5067069;28;20643;-57
2023/06/18 00:35:57;;;;;;;174.05;166.00;;;20.40;99.90;;;;;;5063950;28;20599;-57
2023/06/18 00:38:24;;;;;;;85.82;82.40;;;20.40;99.90;;;;;;5060153;28;20671;-58
2023/06/18 00:40:51;;;;;;;120.30;115.25;;;20.30;99.90;;;;;;5058543;28;20595;-59
2023/06/18 00:43:19;;;;;;;95.70;91.85;;;20.30;99.90;;;;;;5063993;28;20200;-59
2023/06/18 00:45:46;;;;;;;129.82;123.93;;;20.20;99.90;;;;;;5050283;28;20200;-59
2023/06/18 00:48:13;;;;;;;177.00;168.95;;;20.20;99.90;;;;;;5050322;28;20662;-58
2023/06/18 00:50:42;;;;;;;162.13;154.20;;;20.20;99.90;;;;;;5050001;28;20335;-59
2023/06/18 00:53:13;;;;;;;175.93;167.73;;;20.20;99.90;;;;;;5050060;28;20247;-58
2023/06/18 00:55:41;;;;;;;119.63;114.35;;;20.00;99.90;;;;;;5050001;28;20239;-57
2023/06/18 00:58:08;;;;;;;95.70;91.72;;;20.10;99.90;;;;;;5049502;28;20303;-59
2023/06/18 01:00:36;;;;;;;78.63;75.50;;;20.10;99.90;;;;;;5078380;22;20312;-61
2023/06/18 01:03:06;;;;;;;84.70;81.18;;;20.10;99.90;;;;;;5069734;28;20736;-60
2023/06/18 01:05:34;;;;;;;92.45;88.75;;;20.00;99.90;;;;;;5070503;28;20250;-61
2023/06/18 01:08:06;;;;;;;96.95;93.05;;;20.00;99.90;;;;;;5071835;28;20209;-60
2023/06/18 01:10:34;;;;;;;114.82;109.80;;;19.90;99.90;;;;;;5070861;28;20227;-61
2023/06/18 01:13:01;;;;;;;84.28;80.88;;;19.80;99.90;;;;;;5070376;28;20211;-60
2023/06/18 01:15:28;;;;;;;82.45;79.05;;;19.80;99.90;;;;;;5070483;28;20747;-59
2023/06/18 01:17:57;;;;;;;155.63;148.68;;;19.90;99.90;;;;;;5070022;28;20206;-60
2023/06/18 01:20:27;;;;;;;95.53;91.63;;;20.00;99.90;;;;;;5059021;28;20234;-59
2023/06/18 01:23:00;;;;;;;74.20;71.30;;;20.10;99.90;;;;;;5044654;28;20200;-59
2023/06/18 01:25:29;;;;;;;72.43;69.47;;;20.00;99.90;;;;;;5049577;28;20250;-60
2023/06/18 01:27:57;;;;;;;86.32;82.72;;;19.80;99.90;;;;;;5049828;28;20196;-60
2023/06/18 01:30:24;;;;;;;66.80;64.00;;;19.90;99.90;;;;;;5049391;28;20236;-59
2023/06/18 01:32:54;;;;;;;63.60;61.08;;;19.90;99.90;;;;;;5046469;28;20290;-59
2023/06/18 01:35:22;;;;;;;69.32;66.47;;;19.80;99.90;;;;;;5047122;28;20638;-59
2023/06/18 01:38:12;;;;;;;57.45;55.25;;;19.80;99.90;;;;;;5049405;28;20212;-59
2023/06/18 01:40:47;;;;;;;209.77;199.40;;;19.80;99.90;;;;;;5042765;28;20231;-60
2023/06/18 01:43:28;;;;;;;81.00;77.68;;;19.70;99.90;;;;;;5058590;28;20210;-60
2023/06/18 01:45:59;;;;;;;64.13;61.50;;;19.80;99.90;;;;;;5064860;28;20222;-60
2023/06/18 01:48:31;;;;;;;62.30;59.75;;;19.80;99.90;;;;;;5053009;28;20194;-59
2023/06/18 01:51:00;;;;;;;169.60;161.57;;;19.80;99.90;;;;;;5050266;28;20218;-59
2023/06/18 01:53:27;;;;;;;267.40;253.07;;;19.90;99.90;;;;;;5053707;28;20194;-59
2023/06/18 01:55:57;;;;;;;109.07;104.35;;;19.90;99.90;;;;;;5052996;28;20232;-59
2023/06/18 01:58:24;;;;;;;145.80;138.95;;;19.80;99.90;;;;;;5052186;28;20196;-59
2023/06/18 02:00:51;;;;;;;224.57;213.73;;;19.80;99.90;;;;;;5049452;28;20211;-60
2023/06/18 02:03:18;;;;;;;109.28;104.25;;;19.80;99.90;;;;;;5051090;28;20817;-59
2023/06/18 02:05:45;;;;;;;128.50;122.70;;;19.70;99.90;;;;;;5055213;28;20725;-59
2023/06/18 02:08:13;;;;;;;72.28;69.35;;;19.70;99.90;;;;;;5052976;28;20742;-59
2023/06/18 02:10:40;;;;;;;76.50;73.40;;;19.70;99.90;;;;;;5053611;28;20232;-59
2023/06/18 02:13:07;;;;;;;95.55;91.43;;;19.60;99.90;;;;;;5056484;28;20207;-59
2023/06/18 02:15:34;;;;;;;110.88;106.00;;;19.60;99.90;;;;;;5051976;28;20243;-60
2023/06/18 02:18:01;;;;;;;152.63;145.30;;;19.50;99.90;;;;;;5049524;28;20246;-60
2023/06/18 02:20:27;;;;;;;104.60;100.15;;;19.60;99.90;;;;;;5048768;28;20273;-62
2023/06/18 02:22:54;;;;;;;62.85;60.15;;;19.70;99.90;;;;;;5049108;28;20572;-61
2023/06/18 02:25:28;;;;;;;75.55;72.43;;;19.60;99.90;;;;;;5048925;28;20628;-60
2023/06/18 02:27:56;;;;;;;58.45;56.13;;;19.50;99.90;;;;;;5049219;28;20254;-59
2023/06/18 02:30:23;;;;;;;49.05;47.05;;;19.40;99.90;;;;;;5053345;28;20219;-60
2023/06/18 02:32:49;;;;;;;107.70;103.03;;;19.40;99.90;;;;;;5049243;28;20222;-59
2023/06/18 02:35:17;;;;;;;58.63;56.28;;;19.40;99.90;;;;;;5049731;28;20689;-59
2023/06/18 02:37:43;;;;;;;83.35;79.85;;;19.30;99.90;;;;;;5049075;28;20302;-60
2023/06/18 02:40:13;;;;;;;85.00;81.35;;;19.30;99.90;;;;;;5049204;28;20238;-60
2023/06/18 02:42:47;;;;;;;63.00;60.50;;;19.10;99.90;;;;;;5049228;28;20917;-59
2023/06/18 02:45:16;;;;;;;63.97;61.42;;;19.00;99.90;;;;;;5049505;28;20677;-60
2023/06/18 02:47:43;;;;;;;63.28;60.70;;;19.10;99.90;;;;;;5050290;28;20253;-60
2023/06/18 02:50:11;;;;;;;70.45;67.55;;;19.00;99.90;;;;;;5050002;28;20254;-60
2023/06/18 02:52:38;;;;;;;50.25;48.25;;;19.00;99.90;;;;;;5050510;28;20215;-61
2023/06/18 02:55:07;;;;;;;59.75;57.30;;;19.00;99.90;;;;;;5051148;28;20200;-60
2023/06/18 02:57:34;;;;;;;57.35;55.00;;;19.20;99.90;;;;;;5049780;28;20210;-61
2023/06/18 03:00:03;;;;;;;54.80;52.58;;;19.30;99.90;;;;;;5048714;28;20246;-60
2023/06/18 03:02:31;;;;;;;116.38;111.13;;;19.20;99.90;;;;;;5049490;28;20673;-59
2023/06/18 03:04:58;;;;;;;76.43;73.13;;;19.10;99.90;;;;;;5050409;28;20208;-61
2023/06/18 03:07:25;;;;;;;53.83;51.67;;;19.10;99.90;;;;;;5053243;28;20200;-61
2023/06/18 03:09:52;;;;;;;63.92;61.33;;;19.10;99.90;;;;;;5053129;28;20281;-59
2023/06/18 03:12:19;;;;;;;55.03;52.78;;;19.10;99.90;;;;;;5053291;28;20222;-60
2023/06/18 03:14:46;;;;;;;51.75;49.75;;;19.10;99.90;;;;;;5052869;28;20204;-61
2023/06/18 03:17:14;;;;;;;57.47;55.05;;;19.00;99.90;;;;;;5052666;28;20200;-60
2023/06/18 03:19:41;;;;;;;52.30;50.15;;;18.80;99.90;;;;;;5052458;28;20617;-61
2023/06/18 03:22:08;;;;;;;149.70;142.60;;;18.80;99.90;;;;;;5062394;28;20228;-60
2023/06/18 03:24:37;;;;;;;131.43;125.22;;;18.80;99.90;;;;;;5063332;28;20271;-60
2023/06/18 03:27:04;;;;;;;109.40;104.28;;;18.90;99.90;;;;;;5054592;28;20265;-60
2023/06/18 03:29:31;;;;;;;72.05;68.90;;;19.00;99.90;;;;;;5053407;28;20727;-59
2023/06/18 03:31:58;;;;;;;99.10;94.75;;;19.00;99.90;;;;;;5053367;28;20208;-60
2023/06/18 03:34:26;;;;;;;104.00;99.20;;;19.00;99.90;;;;;;5053446;28;20235;-60
2023/06/18 03:36:53;;;;;;;37.80;36.35;;;19.00;99.90;;;;;;5052799;28;20200;-61
2023/06/18 03:39:20;;;;;;;39.15;37.65;;;18.90;99.90;;;;;;5052982;28;20589;-60
2023/06/18 03:41:47;;;;;;;46.15;44.35;;;18.80;99.90;;;;;;5053299;28;20251;-60
2023/06/18 03:44:14;;;;;;;35.63;34.30;;;18.70;99.90;;;;;;5052774;28;20203;-61
2023/06/18 03:46:41;;;;;;;37.58;36.10;;;18.80;99.90;;;;;;5051945;28;20203;-61
2023/06/18 03:49:08;;;;;;;43.08;41.42;;;18.70;99.90;;;;;;5052129;28;20705;-61
2023/06/18 03:51:36;;;;;;;42.60;40.92;;;18.70;99.90;;;;;;5054128;28;20207;-59
2023/06/18 03:54:03;;;;;;;38.35;36.88;;;18.70;99.90;;;;;;5052904;28;20231;-59
2023/06/18 03:56:30;;;;;;;36.22;34.80;;;18.70;99.90;;;;;;5052491;28;20214;-60
2023/06/18 03:58:58;;;;;;;36.58;35.15;;;18.70;99.90;;;;;;5052914;28;20887;-60
2023/06/18 04:01:26;;;;;;;33.08;31.73;;;18.70;99.90;;;;;;5053495;28;20219;-61
2023/06/18 04:03:53;;;;;;;40.10;38.50;;;18.60;99.90;;;;;;5054002;28;20862;-59
2023/06/18 04:06:20;;;;;;;121.13;115.20;;;18.70;99.90;;;;;;5055841;28;20204;-60
2023/06/18 04:08:48;;;;;;;27.58;26.58;;;18.70;99.90;;;;;;5055550;28;20671;-61
2023/06/18 04:11:15;;;;;;;32.97;31.67;;;18.70;99.90;;;;;;5057053;28;20196;-59
2023/06/18 04:13:42;;;;;;;33.95;32.63;;;18.80;99.90;;;;;;5056428;28;20735;-60
2023/06/18 04:16:10;;;;;;;32.00;30.83;;;18.80;99.90;;;;;;5054847;28;20218;-59
2023/06/18 04:18:37;;;;;;;32.30;31.10;;;18.80;99.90;;;;;;5055081;28;20200;-60
2023/06/18 04:21:04;;;;;;;40.35;38.75;;;18.80;99.90;;;;;;5051380;28;20234;-59
2023/06/18 04:23:31;;;;;;;43.83;42.08;;;18.80;99.90;;;;;;5051855;28;20204;-59
2023/06/18 04:25:59;;;;;;;25.90;24.88;;;18.90;99.90;;;;;;5051642;28;20275;-60
2023/06/18 04:28:26;;;;;;;40.78;39.20;;;18.90;99.90;;;;;;5051587;28;20220;-60
2023/06/18 04:30:52;;;;;;;44.83;43.00;;;18.80;99.90;;;;;;5051158;28;20220;-60
2023/06/18 04:33:19;;;;;;;27.02;26.00;;;18.90;99.90;;;;;;5051574;28;20215;-60
2023/06/18 04:35:46;;;;;;;22.35;21.55;;;18.80;99.90;;;;;;5051799;28;20615;-59
2023/06/18 04:38:13;;;;;;;27.02;26.02;;;18.70;99.90;;;;;;5052199;28;20204;-60
2023/06/18 04:40:40;;;;;;;24.73;23.83;;;18.90;99.90;;;;;;5051514;28;20234;-60
2023/06/18 04:43:08;;;;;;;36.00;34.55;;;18.90;99.90;;;;;;5052321;28;20257;-60
2023/06/18 04:45:36;;;;;;;33.22;31.88;;;18.90;99.90;;;;;;5051986;28;20677;-59
2023/06/18 04:48:03;;;;;;;30.83;29.52;;;19.10;99.90;;;;;;5051548;28;20307;-61
2023/06/18 04:50:30;;;;;;;33.13;31.77;;;19.20;99.90;;;;;;5050825;28;20321;-60
2023/06/18 04:52:57;;;;;;;29.02;27.92;;;19.20;99.90;;;;;;5051941;28;20204;-59
2023/06/18 04:55:24;;;;;;;25.27;24.33;;;19.20;99.90;;;;;;5051712;28;20674;-60
2023/06/18 04:57:51;;;;;;;31.67;30.48;;;19.30;99.90;;;;;;5052351;28;20210;-60
2023/06/18 05:00:20;;;;;;;35.97;34.58;;;19.30;99.90;;;;;;5051582;28;20259;-59
2023/06/18 05:02:47;;;;;;;25.40;24.48;;;19.30;99.90;;;;;;5063593;28;20235;-60
2023/06/18 05:05:15;;;;;;;20.08;19.38;;;19.40;99.90;;;;;;5064013;28;20200;-59
2023/06/18 05:07:42;;;;;;;25.13;24.20;;;19.60;99.90;;;;;;5052838;28;20204;-59
2023/06/18 05:10:09;;;;;;;19.05;18.35;;;19.70;99.90;;;;;;5051533;28;20220;-59
2023/06/18 05:12:37;;;;;;;18.15;17.48;;;19.90;99.90;;;;;;5050955;28;20206;-59
2023/06/18 05:15:05;;;;;;;27.52;26.42;;;19.90;99.90;;;;;;5051308;28;20266;-60
2023/06/18 05:17:34;;;;;;;21.92;21.10;;;19.90;99.90;;;;;;5051019;28;20299;-59
2023/06/18 05:20:03;;;;;;;19.30;18.58;;;19.90;99.90;;;;;;5050520;28;20850;-60
2023/06/18 05:22:30;;;;;;;17.88;17.23;;;20.00;99.90;;;;;;5050107;28;20266;-59
2023/06/18 05:24:59;;;;;;;24.02;23.13;;;20.10;99.90;;;;;;5050455;28;20294;-59
2023/06/18 05:27:26;;;;;;;29.70;28.52;;;20.30;99.90;;;;;;5050213;28;20247;-60
2023/06/18 05:29:54;;;;;;;22.52;21.67;;;20.40;99.90;;;;;;5050037;28;20441;-60
2023/06/18 05:32:21;;;;;;;38.45;36.90;;;20.50;99.90;;;;;;5050232;28;20689;-59
2023/06/18 05:34:49;;;;;;;18.40;17.73;;;20.70;99.90;;;;;;5049963;28;20583;-60
2023/06/18 05:37:16;;;;;;;24.33;23.42;;;20.80;99.90;;;;;;5050219;28;20208;-60
2023/06/18 05:39:43;;;;;;;22.08;21.20;;;20.90;99.90;;;;;;5049616;28;20224;-59
2023/06/18 05:42:10;;;;;;;22.45;21.63;;;21.00;99.90;;;;;;5050029;28;20242;-60
2023/06/18 05:44:37;;;;;;;20.27;19.58;;;21.10;99.90;;;;;;5050049;28;20211;-60
2023/06/18 05:47:04;;;;;;;20.20;19.42;;;21.10;99.90;;;;;;5049665;28;20313;-60
2023/06/18 05:49:31;;;;;;;64.90;61.95;;;21.20;99.90;;;;;;5049253;28;20234;-60
2023/06/18 05:51:59;;;;;;;22.35;21.55;;;21.30;99.90;;;;;;5049652;28;20204;-60
2023/06/18 05:54:26;;;;;;;32.35;31.02;;;21.40;99.90;;;;;;5049592;28;20967;-60
2023/06/18 05:56:53;;;;;;;30.33;29.13;;;21.40;99.90;;;;;;5049815;28;20204;-59
2023/06/18 05:59:20;;;;;;;43.58;41.60;;;21.50;99.90;;;;;;5049442;28;20236;-60
2023/06/18 06:01:47;;;;;;;26.85;25.70;;;21.60;99.90;;;;;;5049658;28;20314;-59
2023/06/18 06:04:14;;;;;;;26.02;25.13;;;21.70;99.90;;;;;;5049509;28;20204;-60
2023/06/18 06:06:41;;;;;;;23.25;22.42;;;21.80;99.90;;;;;;5049672;28;20278;-59
2023/06/18 06:09:09;;;;;;;22.40;21.60;;;21.90;99.90;;;;;;5051380;28;20230;-60
2023/06/18 06:11:37;;;;;;;22.75;21.90;;;22.00;99.90;;;;;;5050671;28;20674;-60
2023/06/18 06:14:04;;;;;;;21.95;21.15;;;22.00;99.90;;;;;;5050449;28;20207;-60
2023/06/18 06:16:31;;;;;;;27.45;26.45;;;22.10;99.90;;;;;;5049810;28;20711;-59
2023/06/18 06:18:57;;;;;;;23.25;22.45;;;22.30;99.90;;;;;;5051366;28;20208;-60
2023/06/18 06:21:24;;;;;;;25.10;24.17;;;22.50;99.90;;;;;;5049666;28;20278;-59
2023/06/18 06:23:51;;;;;;;22.50;21.70;;;22.70;99.90;;;;;;5049661;28;20207;-60
2023/06/18 06:26:19;;;;;;;19.83;19.13;;;22.90;99.90;;;;;;5052346;28;20843;-61
2023/06/18 06:28:46;;;;;;;66.30;63.55;;;23.00;99.90;;;;;;5048945;28;20745;-60
2023/06/18 06:31:13;;;;;;;20.45;19.75;;;23.00;99.90;;;;;;5049605;28;20309;-60
2023/06/18 06:33:40;;;;;;;25.25;24.25;;;23.10;99.90;;;;;;5051046;28;20286;-61
2023/06/18 06:36:09;;;;;;;34.55;33.22;;;23.00;99.90;;;;;;5051219;28;20207;-61
2023/06/18 06:38:36;;;;;;;23.85;23.02;;;23.00;99.90;;;;;;5050162;28;20257;-61
2023/06/18 06:41:03;;;;;;;76.90;73.68;;;23.10;99.90;;;;;;5063457;28;20226;-61
2023/06/18 06:43:31;;;;;;;27.88;26.83;;;23.20;99.90;;;;;;5064452;28;20204;-62
2023/06/18 06:45:58;;;;;;;33.05;31.70;;;23.30;99.90;;;;;;5056735;28;20210;-62
2023/06/18 06:48:25;;;;;;;29.27;28.15;;;23.30;99.90;;;;;;5056758;28;20298;-61
2023/06/18 06:50:52;;;;;;;43.45;41.58;;;23.40;99.90;;;;;;5057158;28;20227;-61
2023/06/18 06:53:19;;;;;;;152.02;145.35;;;23.40;99.90;;;;;;5056425;28;20275;-60
2023/06/18 06:55:46;;;;;;;50.08;47.92;;;23.30;99.90;;;;;;5057395;28;20203;-61
2023/06/18 06:58:13;;;;;;;24.27;23.38;;;23.30;99.90;;;;;;5056751;28;20234;-60
2023/06/18 07:00:41;;;;;;;32.70;31.48;;;23.40;99.90;;;;;;5065491;22;20236;-60
2023/06/18 07:03:08;;;;;;;76.47;73.20;;;23.40;99.90;;;;;;5053807;28;20237;-57
2023/06/18 07:05:35;;;;;;;39.67;38.08;;;23.30;99.90;;;;;;5055187;28;20210;-60
2023/06/18 07:08:05;;;;;;;22.73;21.92;;;23.50;99.90;;;;;;5053444;28;20204;-60
2023/06/18 07:10:32;;;;;;;36.60;35.17;;;23.50;99.90;;;;;;5055152;28;20220;-59
2023/06/18 07:12:59;;;;;;;24.15;23.25;;;23.60;99.90;;;;;;5054273;28;20196;-58
2023/06/18 07:15:25;;;;;;;43.17;41.50;;;23.60;99.90;;;;;;5052787;28;20298;-61
2023/06/18 07:17:54;;;;;;;30.35;29.25;;;23.60;99.90;;;;;;5052282;28;20211;-60
2023/06/18 07:20:21;;;;;;;26.95;25.95;;;23.70;99.90;;;;;;5051689;28;20666;-60
2023/06/18 07:22:48;;;;;;;24.45;23.55;;;23.80;99.90;;;;;;5051815;28;20579;-64
2023/06/18 07:25:15;;;;;;;23.70;22.85;;;23.80;99.90;;;;;;5051820;28;20211;-64
2023/06/18 07:27:41;;;;;;;97.38;92.88;;;24.10;99.90;;;;;;5052704;28;20223;-62
2023/06/18 07:30:09;;;;;;;32.90;31.60;;;24.30;99.90;;;;;;5052140;28;20220;-63
2023/06/18 07:32:36;;;;;;;25.65;24.70;;;24.40;99.90;;;;;;5052238;28;20247;-64
2023/06/18 07:35:05;;;;;;;29.70;28.60;;;24.60;99.90;;;;;;5053104;28;20242;-62
2023/06/18 07:37:32;;;;;;;27.63;26.63;;;24.80;99.90;;;;;;5052764;28;20215;-63
2023/06/18 07:39:59;;;;;;;42.72;40.85;;;24.90;99.90;;;;;;5052176;28;20285;-63
2023/06/18 07:42:26;;;;;;;58.80;56.20;;;25.00;99.90;;;;;;5051421;28;20568;-64
2023/06/18 07:44:53;;;;;;;32.10;30.85;;;25.00;99.90;;;;;;5051986;28;20295;-63
2023/06/18 07:47:20;;;;;;;23.45;22.55;;;25.00;99.90;;;;;;5052132;28;20318;-62
2023/06/18 07:49:47;;;;;;;93.40;89.15;;;25.20;99.90;;;;;;5051446;28;20251;-64
2023/06/18 07:52:15;;;;;;;41.10;39.40;;;25.30;99.90;;;;;;5051245;28;20226;-64
2023/06/18 07:54:42;;;;;;;27.33;26.30;;;25.40;99.90;;;;;;5052048;28;20603;-64
2023/06/18 07:57:09;;;;;;;38.95;37.38;;;25.50;99.90;;;;;;5051806;28;20199;-64
2023/06/18 07:59:36;;;;;;;32.20;31.00;;;25.60;99.90;;;;;;5050758;28;20402;-64
2023/06/18 08:02:03;;;;;;;26.75;25.75;;;25.70;99.90;;;;;;5051076;28;20570;-62
2023/06/18 08:04:30;;;;;;;29.10;27.95;;;25.70;99.90;;;;;;5051422;28;20207;-63
2023/06/18 08:06:56;;;;;;;35.05;33.70;;;25.80;99.90;;;;;;5051901;28;20295;-64
2023/06/18 08:09:25;;;;;;;31.58;30.38;;;25.70;99.90;;;;;;5053848;28;20696;-64
2023/06/18 08:11:51;;;;;;;23.85;22.95;;;25.70;99.90;;;;;;5054119;28;20562;-63
2023/06/18 08:14:18;;;;;;;24.90;23.90;;;25.90;99.90;;;;;;5052177;28;20216;-64
2023/06/18 08:16:45;;;;;;;32.40;31.20;;;26.20;99.90;;;;;;5052124;28;20200;-63
2023/06/18 08:19:12;;;;;;;62.13;59.33;;;26.30;99.90;;;;;;5052092;28;20234;-64
2023/06/18 08:21:39;;;;;;;30.67;29.58;;;26.40;99.90;;;;;;5051596;28;20313;-61
2023/06/18 08:24:06;;;;;;;32.58;31.35;;;26.40;99.90;;;;;;5053144;28;20275;-63
2023/06/18 08:26:35;;;;;;;26.90;25.90;;;26.60;99.90;;;;;;5054024;28;20267;-64
2023/06/18 08:29:02;;;;;;;33.05;31.77;;;26.80;99.90;;;;;;5052496;28;20747;-63
2023/06/18 08:31:29;;;;;;;32.38;31.10;;;26.80;99.90;;;;;;5054727;28;20202;-63
2023/06/18 08:33:56;;;;;;;41.75;40.05;;;26.90;99.90;;;;;;5052517;28;20295;-64
2023/06/18 08:36:23;;;;;;;31.55;30.35;;;26.90;99.90;;;;;;5050670;28;21028;-62
2023/06/18 08:38:50;;;;;;;29.52;28.38;;;27.00;99.90;;;;;;5050230;28;20915;-63
2023/06/18 08:41:17;;;;;;;30.95;29.80;;;27.10;99.90;;;;;;5049991;28;20195;-64
2023/06/18 08:43:45;;;;;;;30.13;29.02;;;27.20;99.90;;;;;;5050092;28;20311;-62
2023/06/18 08:46:14;;;;;;;39.15;37.65;;;27.30;99.90;;;;;;5051114;28;20202;-63
2023/06/18 08:48:45;;;;;;;35.78;34.42;;;27.40;99.90;;;;;;5051116;28;20678;-62
2023/06/18 08:51:12;;;;;;;27.80;26.80;;;27.40;99.90;;;;;;5051376;28;20278;-63
2023/06/18 08:53:45;;;;;;;38.45;37.00;;;27.50;99.90;;;;;;5052048;28;20196;-62
2023/06/18 08:56:15;;;;;;;35.53;34.20;;;27.50;99.90;;;;;;5052389;28;20372;-64
2023/06/18 08:58:46;;;;;;;28.60;27.55;;;27.60;99.90;;;;;;5052914;28;20663;-63
2023/06/18 09:01:15;;;;;;;57.40;54.95;;;27.70;99.90;;;;;;5051906;28;20713;-61
2023/06/18 09:03:43;;;;;;;33.53;32.17;;;27.70;99.90;;;;;;5051944;28;20598;-62
2023/06/18 09:06:11;;;;;;;31.48;30.17;;;27.70;99.90;;;;;;5052619;28;20212;-63
2023/06/18 09:08:39;;;;;;;34.17;32.90;;;27.80;99.90;;;;;;5053128;28;20204;-63
2023/06/18 09:11:06;;;;;;;59.72;57.17;;;28.00;99.90;;;;;;5051974;28;20231;-63
2023/06/18 09:13:33;;;;;;;47.22;45.30;;;27.90;99.90;;;;;;5052759;28;20214;-61
2023/06/18 09:16:01;;;;;;;38.03;36.53;;;27.90;99.90;;;;;;5060610;28;20208;-65
2023/06/18 09:18:29;;;;;;;37.55;36.05;;;28.10;99.90;;;;;;5053410;28;20218;-65
2023/06/18 09:20:56;;;;;;;36.28;34.88;;;28.20;99.90;;;;;;5051863;28;20227;-65
2023/06/18 09:23:23;;;;;;;44.50;42.75;;;28.40;99.90;;;;;;5051964;28;20231;-64
2023/06/18 09:25:52;;;;;;;34.20;32.80;;;28.40;99.90;;;;;;5051875;28;20236;-63
2023/06/18 09:28:19;;;;;;;42.58;40.90;;;28.60;99.90;;;;;;5051735;28;20295;-63
2023/06/18 09:30:51;;;;;;;34.25;32.92;;;28.70;99.90;;;;;;5051964;28;20231;-64
2023/06/18 09:33:29;;;;;;;34.95;33.63;;;28.70;99.90;;;;;;5051837;28;20203;-64
2023/06/18 09:36:00;;;;;;;56.65;54.25;;;28.80;99.90;;;;;;5051850;28;20539;-64
2023/06/18 09:38:36;;;;;;;45.78;43.92;;;29.00;99.90;;;;;;5051920;28;20189;-63
2023/06/18 09:41:09;;;;;;;32.10;30.90;;;29.00;99.90;;;;;;5051578;28;20234;-66
2023/06/18 09:43:37;;;;;;;29.80;28.67;;;29.10;99.90;;;;;;5052063;28;20232;-64
2023/06/18 09:46:05;;;;;;;46.67;44.83;;;29.20;99.70;;;;;;5054610;28;20218;-64
2023/06/18 09:48:35;;;;;;;33.60;32.33;;;29.20;99.60;;;;;;5053927;28;20232;-63
2023/06/18 09:51:02;;;;;;;27.60;26.60;;;29.40;99.90;;;;;;5051578;28;20630;-63
2023/06/18 09:53:29;;;;;;;32.70;31.33;;;29.50;99.50;;;;;;5052123;28;20231;-64
2023/06/18 09:56:07;;;;;;;35.92;34.63;;;29.50;99.60;;;;;;5051308;28;20291;-63
2023/06/18 09:58:41;;;;;;;83.45;79.93;;;29.70;99.80;;;;;;5051794;28;20196;-63
2023/06/18 10:01:08;;;;;;;41.97;40.28;;;29.30;98.70;;;;;;5051187;28;20721;-65
2023/06/18 10:03:36;;;;;;;32.42;31.23;;;29.40;98.80;;;;;;5052684;28;20604;-62
2023/06/18 10:06:12;;;;;;;31.80;30.55;;;29.70;98.80;;;;;;5056263;28;20203;-64
2023/06/18 10:08:41;;;;;;;25.73;24.80;;;29.80;98.30;;;;;;5055676;28;20196;-64
2023/06/18 10:11:10;;;;;;;30.52;29.40;;;29.80;97.80;;;;;;5059592;28;20326;-64
2023/06/18 10:13:41;;;;;;;44.83;43.00;;;30.00;97.90;;;;;;5058825;28;20290;-64
2023/06/18 10:16:09;;;;;;;30.08;28.98;;;30.00;96.30;;;;;;5056836;28;20228;-64
2023/06/18 10:18:38;;;;;;;35.20;33.88;;;30.00;96.60;;;;;;5054156;28;20286;-63
2023/06/18 10:21:08;;;;;;;26.45;25.25;;;30.10;96.70;;;;;;5051408;28;20224;-62
2023/06/18 10:23:36;;;;;;;23.83;22.92;;;30.30;96.50;;;;;;5052052;28;20228;-63
2023/06/18 10:26:04;;;;;;;29.52;28.42;;;30.30;95.60;;;;;;5052173;28;20204;-62
2023/06/18 10:28:31;;;;;;;28.80;27.70;;;30.50;95.50;;;;;;5051778;28;20269;-63
2023/06/18 10:30:58;;;;;;;24.65;23.75;;;30.60;95.60;;;;;;5053034;28;20231;-64
2023/06/18 10:33:26;;;;;;;35.00;33.60;;;30.70;94.70;;;;;;5069389;28;20267;-64
2023/06/18 10:35:54;;;;;;;24.95;24.05;;;30.50;94.40;;;;;;5068551;28;20275;-64
2023/06/18 10:38:21;;;;;;;190.30;180.88;;;30.60;94.80;;;;;;5060130;28;20295;-64
2023/06/18 10:40:48;;;;;;;26.65;25.65;;;30.70;94.60;;;;;;5051326;28;20254;-63
2023/06/18 10:43:15;;;;;;;33.13;31.83;;;30.60;94.50;;;;;;5050985;28;20246;-63
2023/06/18 10:46:10;;;;;;;28.92;27.83;;;30.70;94.30;;;;;;5051316;28;20250;-64
2023/06/18 10:48:37;;;;;;;69.05;66.00;;;30.90;94.70;;;;;;5051547;28;20211;-63
2023/06/18 10:51:19;;;;;;;103.43;98.88;;;31.00;94.10;;;;;;5051248;28;20723;-64
2023/06/18 10:53:47;;;;;;;132.48;126.10;;;30.80;93.60;;;;;;5051280;28;20207;-62
2023/06/18 10:56:16;;;;;;;23.17;22.35;;;30.80;93.90;;;;;;5050702;28;20211;-63
2023/06/18 10:58:43;;;;;;;28.77;27.70;;;30.80;93.40;;;;;;5048662;28;20204;-63
2023/06/18 11:01:26;;;;;;;21.90;21.10;;;30.80;93.60;;;;;;5049133;28;20223;-63
2023/06/18 11:04:07;;;;;;;42.67;40.88;;;30.80;93.60;;;;;;5051356;28;20223;-64
2023/06/18 11:06:35;;;;;;;213.45;203.02;;;31.00;93.00;;;;;;5048490;28;20257;-63
2023/06/18 11:09:02;;;;;;;39.88;38.25;;;30.80;92.20;;;;;;5051873;28;20200;-63
2023/06/18 11:11:32;;;;;;;21.10;20.33;;;30.90;92.30;;;;;;5050910;28;20950;-64
2023/06/18 11:13:59;;;;;;;51.53;49.35;;;31.00;92.40;;;;;;5052239;28;20529;-65
2023/06/18 11:16:26;;;;;;;67.47;64.47;;;31.00;91.40;;;;;;5056496;28;20227;-64
2023/06/18 11:18:53;;;;;;;73.53;70.18;;;31.10;92.30;;;;;;5056874;28;20220;-64
2023/06/18 11:21:21;;;;;;;66.60;63.67;;;31.10;92.70;;;;;;5050957;28;20227;-63
2023/06/18 11:23:50;;;;;;;27.08;26.10;;;31.00;91.30;;;;;;5050956;28;20223;-65
2023/06/18 11:26:18;;;;;;;24.33;23.42;;;31.10;91.70;;;;;;5052380;28;20728;-64
2023/06/18 11:28:46;;;;;;;23.67;22.80;;;31.40;92.10;;;;;;5055021;28;20207;-64
2023/06/18 11:31:13;;;;;;;82.05;78.40;;;31.40;91.80;;;;;;5054080;28;20216;-63
2023/06/18 11:33:46;;;;;;;22.45;21.55;;;31.40;91.10;;;;;;5054541;28;20196;-65
2023/06/18 11:36:14;;;;;;;33.95;32.63;;;31.30;91.10;;;;;;5053985;28;20207;-63
2023/06/18 11:38:42;;;;;;;16.52;15.93;;;31.30;91.00;;;;;;5051796;28;20196;-64
2023/06/18 11:41:10;;;;;;;69.88;66.72;;;31.30;90.70;;;;;;5054349;28;20330;-62
2023/06/18 11:43:45;;;;;;;22.75;21.95;;;31.50;90.40;;;;;;5053934;28;20216;-63
2023/06/18 11:46:29;;;;;;;14.85;14.35;;;31.60;90.50;;;;;;5054140;28;20195;-63
2023/06/18 11:48:56;;;;;;;22.67;21.88;;;31.60;90.50;;;;;;5052978;28;20254;-64
2023/06/18 11:51:24;;;;;;;12.15;11.75;;;31.60;90.50;;;;;;5053462;28;20204;-63
2023/06/18 11:53:52;;;;;;;67.18;63.97;;;31.80;89.90;;;;;;5053203;28;20207;-63
2023/06/18 11:56:24;;;;;;;60.33;57.60;;;32.00;89.20;;;;;;5053723;28;20203;-63
2023/06/18 11:58:52;;;;;;;71.03;67.88;;;32.10;88.40;;;;;;5053289;28;20208;-64
2023/06/18 12:01:18;;;;;;;34.35;32.85;;;32.10;88.40;;;;;;5052953;28;20892;-64
2023/06/18 12:03:46;;;;;;;22.02;21.23;;;32.10;88.50;;;;;;5054591;28;20764;-63
2023/06/18 12:06:16;;;;;;;235.32;223.00;;;31.90;88.30;;;;;;5062341;28;20300;-64
2023/06/18 12:08:47;;;;;;;22.25;21.33;;;31.90;88.80;;;;;;5063409;28;20287;-64
2023/06/18 12:11:28;;;;;;;38.45;36.85;;;31.90;88.30;;;;;;5061508;28;20299;-63
2023/06/18 12:13:59;;;;;;;22.52;21.70;;;32.20;88.80;;;;;;5055736;28;20635;-63
2023/06/18 12:16:29;;;;;;;20.35;19.60;;;32.20;88.10;;;;;;5053672;28;20200;-63
2023/06/18 12:19:01;;;;;;;18.55;17.85;;;32.30;88.50;;;;;;5053997;28;20200;-63
2023/06/18 12:21:28;;;;;;;19.52;18.83;;;32.50;88.60;;;;;;5048949;28;20196;-63
2023/06/18 12:23:57;;;;;;;14.80;14.27;;;32.50;87.00;;;;;;5051903;28;20224;-65
2023/06/18 12:26:25;;;;;;;12.25;11.75;;;32.50;86.00;;;;;;5054538;28;20261;-63
2023/06/18 12:28:53;;;;;;;209.82;199.10;;;32.50;85.80;;;;;;5050220;28;20224;-64